sensor_id;sensor_type;location;lat;lon;timestamp;P1;durP1;ratioP1;P2;durP2;ratioP2
20908;SDS011;10614;53.198;6.570;2023-05-07T00:01:13;14.80;;;9.57;;
20908;SDS011;10614;53.198;6.570;2023-05-07T00:03:15;17.23;;;9.55;;
20908;SDS011;10614;53.198;6.570;2023-05-07T00:05:17;11.98;;;7.97;;
20908;SDS011;10614;53.198;6.570;2023-05-07T00:07:19;16.38;;;9.77;;
20908;SDS011;10614;53.198;6.570;2023-05-07T00:09:20;15.10;;;8.90;;
20908;SDS011;10614;53.198;6.570;2023-05-07T00:11:22;18.23;;;10.15;;
20908;SDS011;10614;53.198;6.570;2023-05-07T00:13:24;14.50;;;9.27;;
20908;SDS011;10614;53.198;6.570;2023-05-07T00:15:26;16.33;;;9.43;;
20908;SDS011;10614;53.198;6.570;2023-05-07T00:17:29;15.93;;;9.68;;
20908;SDS011;10614;53.198;6.570;2023-05-07T00:19:33;15.63;;;10.00;;
20908;SDS011;10614;53.198;6.570;2023-05-07T00:21:36;15.70;;;10.13;;
20908;SDS011;10614;53.198;6.570;2023-05-07T00:23:38;19.80;;;11.73;;
20908;SDS011;10614;53.198;6.570;2023-05-07T00:25:40;16.67;;;10.85;;
20908;SDS011;10614;53.198;6.570;2023-05-07T00:27:41;15.77;;;9.35;;
20908;SDS011;10614;53.198;6.570;2023-05-07T00:29:44;16.65;;;10.20;;
20908;SDS011;10614;53.198;6.570;2023-05-07T00:31:48;15.57;;;9.70;;
20908;SDS011;10614;53.198;6.570;2023-05-07T00:33:52;18.42;;;10.90;;
20908;SDS011;10614;53.198;6.570;2023-05-07T00:35:53;15.10;;;9.85;;
20908;SDS011;10614;53.198;6.570;2023-05-07T00:37:55;15.75;;;10.20;;
20908;SDS011;10614;53.198;6.570;2023-05-07T00:39:58;13.70;;;8.93;;
20908;SDS011;10614;53.198;6.570;2023-05-07T00:42:00;15.52;;;9.50;;
20908;SDS011;10614;53.198;6.570;2023-05-07T00:44:02;16.65;;;9.65;;
20908;SDS011;10614;53.198;6.570;2023-05-07T00:46:04;18.13;;;11.05;;
20908;SDS011;10614;53.198;6.570;2023-05-07T00:48:06;20.27;;;12.95;;
20908;SDS011;10614;53.198;6.570;2023-05-07T00:50:10;18.95;;;11.57;;
20908;SDS011;10614;53.198;6.570;2023-05-07T00:52:13;15.55;;;9.77;;
20908;SDS011;10614;53.198;6.570;2023-05-07T00:54:17;18.65;;;11.00;;
20908;SDS011;10614;53.198;6.570;2023-05-07T00:56:20;15.35;;;9.75;;
20908;SDS011;10614;53.198;6.570;2023-05-07T00:58:22;16.23;;;9.88;;
20908;SDS011;10614;53.198;6.570;2023-05-07T01:00:25;20.50;;;10.82;;
20908;SDS011;10614;53.198;6.570;2023-05-07T01:02:27;17.33;;;10.10;;
20908;SDS011;10614;53.198;6.570;2023-05-07T01:04:28;15.70;;;9.90;;
20908;SDS011;10614;53.198;6.570;2023-05-07T01:06:32;14.57;;;9.82;;
20908;SDS011;10614;53.198;6.570;2023-05-07T01:08:34;16.65;;;10.82;;
20908;SDS011;10614;53.198;6.570;2023-05-07T01:10:39;16.63;;;11.02;;
20908;SDS011;10614;53.198;6.570;2023-05-07T01:12:43;16.10;;;10.10;;
20908;SDS011;10614;53.198;6.570;2023-05-07T01:14:47;19.25;;;10.50;;
20908;SDS011;10614;53.198;6.570;2023-05-07T01:16:50;16.98;;;10.93;;
20908;SDS011;10614;53.198;6.570;2023-05-07T01:18:53;17.15;;;11.05;;
20908;SDS011;10614;53.198;6.570;2023-05-07T01:20:55;21.33;;;12.88;;
20908;SDS011;10614;53.198;6.570;2023-05-07T01:23:01;16.73;;;10.73;;
20908;SDS011;10614;53.198;6.570;2023-05-07T01:27:07;19.67;;;10.98;;
20908;SDS011;10614;53.198;6.570;2023-05-07T01:29:09;20.23;;;12.63;;
20908;SDS011;10614;53.198;6.570;2023-05-07T01:31:12;24.15;;;13.88;;
20908;SDS011;10614;53.198;6.570;2023-05-07T01:33:15;20.73;;;12.32;;
20908;SDS011;10614;53.198;6.570;2023-05-07T01:35:22;20.50;;;12.95;;
20908;SDS011;10614;53.198;6.570;2023-05-07T01:37:26;21.02;;;12.70;;
20908;SDS011;10614;53.198;6.570;2023-05-07T01:39:31;19.40;;;11.93;;
20908;SDS011;10614;53.198;6.570;2023-05-07T01:41:34;19.20;;;11.68;;
20908;SDS011;10614;53.198;6.570;2023-05-07T01:43:36;21.55;;;13.98;;
20908;SDS011;10614;53.198;6.570;2023-05-07T01:45:38;21.25;;;12.98;;
20908;SDS011;10614;53.198;6.570;2023-05-07T01:47:42;20.27;;;13.02;;
20908;SDS011;10614;53.198;6.570;2023-05-07T01:49:44;17.63;;;11.50;;
20908;SDS011;10614;53.198;6.570;2023-05-07T01:51:46;21.85;;;14.10;;
20908;SDS011;10614;53.198;6.570;2023-05-07T01:53:48;18.65;;;12.05;;
20908;SDS011;10614;53.198;6.570;2023-05-07T01:55:52;20.45;;;12.98;;
20908;SDS011;10614;53.198;6.570;2023-05-07T01:57:54;20.35;;;13.52;;
20908;SDS011;10614;53.198;6.570;2023-05-07T01:59:55;19.38;;;12.15;;
20908;SDS011;10614;53.198;6.570;2023-05-07T02:01:57;18.52;;;11.23;;
20908;SDS011;10614;53.198;6.570;2023-05-07T02:03:59;20.58;;;11.68;;
20908;SDS011;10614;53.198;6.570;2023-05-07T02:06:00;18.45;;;11.30;;
20908;SDS011;10614;53.198;6.570;2023-05-07T02:08:02;17.85;;;10.23;;
20908;SDS011;10614;53.198;6.570;2023-05-07T02:10:05;20.25;;;11.93;;
20908;SDS011;10614;53.198;6.570;2023-05-07T02:12:09;24.15;;;12.85;;
20908;SDS011;10614;53.198;6.570;2023-05-07T02:14:11;16.40;;;10.65;;
20908;SDS011;10614;53.198;6.570;2023-05-07T02:16:12;18.02;;;11.43;;
20908;SDS011;10614;53.198;6.570;2023-05-07T02:18:15;20.10;;;12.13;;
20908;SDS011;10614;53.198;6.570;2023-05-07T02:20:17;20.02;;;11.88;;
20908;SDS011;10614;53.198;6.570;2023-05-07T02:22:19;24.15;;;14.32;;
20908;SDS011;10614;53.198;6.570;2023-05-07T02:24:21;17.70;;;11.57;;
20908;SDS011;10614;53.198;6.570;2023-05-07T02:26:23;19.55;;;11.45;;
20908;SDS011;10614;53.198;6.570;2023-05-07T02:28:27;18.95;;;11.63;;
20908;SDS011;10614;53.198;6.570;2023-05-07T02:30:29;19.50;;;12.07;;
20908;SDS011;10614;53.198;6.570;2023-05-07T02:32:33;20.02;;;12.18;;
20908;SDS011;10614;53.198;6.570;2023-05-07T02:34:36;19.08;;;12.02;;
20908;SDS011;10614;53.198;6.570;2023-05-07T02:36:37;21.52;;;12.68;;
20908;SDS011;10614;53.198;6.570;2023-05-07T02:38:40;18.38;;;11.20;;
20908;SDS011;10614;53.198;6.570;2023-05-07T02:40:41;23.48;;;12.95;;
20908;SDS011;10614;53.198;6.570;2023-05-07T02:42:43;19.15;;;11.57;;
20908;SDS011;10614;53.198;6.570;2023-05-07T02:44:48;19.73;;;11.40;;
20908;SDS011;10614;53.198;6.570;2023-05-07T02:46:49;18.45;;;11.43;;
20908;SDS011;10614;53.198;6.570;2023-05-07T02:48:51;18.05;;;10.48;;
20908;SDS011;10614;53.198;6.570;2023-05-07T02:50:53;17.75;;;11.00;;
20908;SDS011;10614;53.198;6.570;2023-05-07T02:52:58;17.52;;;10.48;;
20908;SDS011;10614;53.198;6.570;2023-05-07T02:54:59;19.27;;;11.38;;
20908;SDS011;10614;53.198;6.570;2023-05-07T02:57:02;17.85;;;10.82;;
20908;SDS011;10614;53.198;6.570;2023-05-07T02:59:04;21.52;;;13.25;;
20908;SDS011;10614;53.198;6.570;2023-05-07T03:01:07;20.95;;;12.93;;
20908;SDS011;10614;53.198;6.570;2023-05-07T03:03:09;18.73;;;11.82;;
20908;SDS011;10614;53.198;6.570;2023-05-07T03:05:11;21.05;;;11.82;;
20908;SDS011;10614;53.198;6.570;2023-05-07T03:07:14;19.58;;;11.70;;
20908;SDS011;10614;53.198;6.570;2023-05-07T03:09:16;19.45;;;11.77;;
20908;SDS011;10614;53.198;6.570;2023-05-07T03:11:17;18.60;;;11.88;;
20908;SDS011;10614;53.198;6.570;2023-05-07T03:13:19;21.70;;;13.27;;
20908;SDS011;10614;53.198;6.570;2023-05-07T03:15:22;18.48;;;11.52;;
20908;SDS011;10614;53.198;6.570;2023-05-07T03:17:25;21.80;;;12.38;;
20908;SDS011;10614;53.198;6.570;2023-05-07T03:19:27;21.95;;;13.65;;
20908;SDS011;10614;53.198;6.570;2023-05-07T03:21:30;22.88;;;14.13;;
20908;SDS011;10614;53.198;6.570;2023-05-07T03:23:33;24.80;;;14.30;;
20908;SDS011;10614;53.198;6.570;2023-05-07T03:25:35;23.45;;;13.52;;
20908;SDS011;10614;53.198;6.570;2023-05-07T03:27:38;22.88;;;13.68;;
20908;SDS011;10614;53.198;6.570;2023-05-07T03:29:41;22.58;;;13.68;;
20908;SDS011;10614;53.198;6.570;2023-05-07T03:31:43;24.33;;;15.15;;
20908;SDS011;10614;53.198;6.570;2023-05-07T03:33:53;29.08;;;16.00;;
20908;SDS011;10614;53.198;6.570;2023-05-07T03:35:56;22.00;;;13.45;;
20908;SDS011;10614;53.198;6.570;2023-05-07T03:37:58;24.13;;;13.05;;
20908;SDS011;10614;53.198;6.570;2023-05-07T03:39:59;22.20;;;13.38;;
20908;SDS011;10614;53.198;6.570;2023-05-07T03:42:02;23.52;;;14.07;;
20908;SDS011;10614;53.198;6.570;2023-05-07T03:44:04;24.13;;;13.60;;
20908;SDS011;10614;53.198;6.570;2023-05-07T03:46:06;27.27;;;15.50;;
20908;SDS011;10614;53.198;6.570;2023-05-07T03:48:07;23.42;;;13.73;;
20908;SDS011;10614;53.198;6.570;2023-05-07T03:50:11;26.67;;;15.70;;
20908;SDS011;10614;53.198;6.570;2023-05-07T03:52:12;22.10;;;12.45;;
20908;SDS011;10614;53.198;6.570;2023-05-07T03:54:14;22.95;;;14.23;;
20908;SDS011;10614;53.198;6.570;2023-05-07T03:56:16;24.63;;;14.50;;
20908;SDS011;10614;53.198;6.570;2023-05-07T03:58:18;27.25;;;14.98;;
20908;SDS011;10614;53.198;6.570;2023-05-07T04:00:20;30.48;;;16.27;;
20908;SDS011;10614;53.198;6.570;2023-05-07T04:02:22;23.77;;;14.32;;
20908;SDS011;10614;53.198;6.570;2023-05-07T04:04:24;23.38;;;12.75;;
20908;SDS011;10614;53.198;6.570;2023-05-07T04:06:27;22.67;;;13.00;;
20908;SDS011;10614;53.198;6.570;2023-05-07T04:08:29;27.95;;;16.15;;
20908;SDS011;10614;53.198;6.570;2023-05-07T04:10:31;23.92;;;15.13;;
20908;SDS011;10614;53.198;6.570;2023-05-07T04:12:33;27.55;;;16.90;;
20908;SDS011;10614;53.198;6.570;2023-05-07T04:14:34;27.00;;;14.85;;
20908;SDS011;10614;53.198;6.570;2023-05-07T04:16:36;22.70;;;13.50;;
20908;SDS011;10614;53.198;6.570;2023-05-07T04:18:38;20.92;;;12.48;;
20908;SDS011;10614;53.198;6.570;2023-05-07T04:20:40;20.58;;;12.05;;
20908;SDS011;10614;53.198;6.570;2023-05-07T04:22:43;21.40;;;12.73;;
20908;SDS011;10614;53.198;6.570;2023-05-07T04:24:45;22.30;;;13.18;;
20908;SDS011;10614;53.198;6.570;2023-05-07T04:26:47;21.58;;;12.85;;
20908;SDS011;10614;53.198;6.570;2023-05-07T04:28:48;21.48;;;12.68;;
20908;SDS011;10614;53.198;6.570;2023-05-07T04:30:50;19.80;;;11.43;;
20908;SDS011;10614;53.198;6.570;2023-05-07T04:32:52;19.13;;;11.93;;
20908;SDS011;10614;53.198;6.570;2023-05-07T04:34:54;20.80;;;12.23;;
20908;SDS011;10614;53.198;6.570;2023-05-07T04:36:57;19.40;;;12.27;;
20908;SDS011;10614;53.198;6.570;2023-05-07T04:39:01;20.85;;;12.55;;
20908;SDS011;10614;53.198;6.570;2023-05-07T04:41:04;19.85;;;12.15;;
20908;SDS011;10614;53.198;6.570;2023-05-07T04:43:07;21.67;;;11.88;;
20908;SDS011;10614;53.198;6.570;2023-05-07T04:45:09;22.25;;;11.85;;
20908;SDS011;10614;53.198;6.570;2023-05-07T04:47:12;22.08;;;12.80;;
20908;SDS011;10614;53.198;6.570;2023-05-07T04:49:14;21.58;;;12.15;;
20908;SDS011;10614;53.198;6.570;2023-05-07T04:51:15;24.38;;;14.32;;
20908;SDS011;10614;53.198;6.570;2023-05-07T04:53:17;19.50;;;11.82;;
20908;SDS011;10614;53.198;6.570;2023-05-07T04:55:21;20.33;;;12.20;;
20908;SDS011;10614;53.198;6.570;2023-05-07T04:57:23;25.88;;;15.35;;
20908;SDS011;10614;53.198;6.570;2023-05-07T04:59:25;22.23;;;12.80;;
20908;SDS011;10614;53.198;6.570;2023-05-07T05:01:26;22.02;;;12.80;;
20908;SDS011;10614;53.198;6.570;2023-05-07T05:03:28;21.38;;;12.52;;
20908;SDS011;10614;53.198;6.570;2023-05-07T05:05:31;26.75;;;14.60;;
20908;SDS011;10614;53.198;6.570;2023-05-07T05:07:33;21.00;;;12.15;;
20908;SDS011;10614;53.198;6.570;2023-05-07T05:09:34;19.27;;;11.98;;
20908;SDS011;10614;53.198;6.570;2023-05-07T05:11:38;21.67;;;12.55;;
20908;SDS011;10614;53.198;6.570;2023-05-07T05:13:40;20.05;;;11.63;;
20908;SDS011;10614;53.198;6.570;2023-05-07T05:15:41;19.75;;;12.02;;
20908;SDS011;10614;53.198;6.570;2023-05-07T05:17:43;24.50;;;13.80;;
20908;SDS011;10614;53.198;6.570;2023-05-07T05:19:45;18.08;;;11.32;;
20908;SDS011;10614;53.198;6.570;2023-05-07T05:21:46;23.58;;;13.93;;
20908;SDS011;10614;53.198;6.570;2023-05-07T05:23:48;18.65;;;11.48;;
20908;SDS011;10614;53.198;6.570;2023-05-07T05:25:50;21.60;;;13.27;;
20908;SDS011;10614;53.198;6.570;2023-05-07T05:27:58;19.75;;;11.65;;
20908;SDS011;10614;53.198;6.570;2023-05-07T05:30:00;20.90;;;12.07;;
20908;SDS011;10614;53.198;6.570;2023-05-07T05:32:01;21.70;;;12.65;;
20908;SDS011;10614;53.198;6.570;2023-05-07T05:34:03;21.35;;;12.45;;
20908;SDS011;10614;53.198;6.570;2023-05-07T05:36:06;20.77;;;12.30;;
20908;SDS011;10614;53.198;6.570;2023-05-07T05:38:10;19.00;;;11.10;;
20908;SDS011;10614;53.198;6.570;2023-05-07T05:40:12;19.67;;;12.18;;
20908;SDS011;10614;53.198;6.570;2023-05-07T05:42:13;17.42;;;11.32;;
20908;SDS011;10614;53.198;6.570;2023-05-07T05:44:16;19.95;;;12.02;;
20908;SDS011;10614;53.198;6.570;2023-05-07T05:46:18;18.08;;;11.65;;
20908;SDS011;10614;53.198;6.570;2023-05-07T05:48:20;18.30;;;10.88;;
20908;SDS011;10614;53.198;6.570;2023-05-07T05:50:22;15.93;;;10.32;;
20908;SDS011;10614;53.198;6.570;2023-05-07T05:52:24;17.45;;;10.52;;
20908;SDS011;10614;53.198;6.570;2023-05-07T05:54:26;20.73;;;11.82;;
20908;SDS011;10614;53.198;6.570;2023-05-07T05:56:28;16.73;;;10.32;;
20908;SDS011;10614;53.198;6.570;2023-05-07T05:58:30;19.75;;;12.27;;
20908;SDS011;10614;53.198;6.570;2023-05-07T06:00:34;20.15;;;11.15;;
20908;SDS011;10614;53.198;6.570;2023-05-07T06:02:35;21.73;;;11.73;;
20908;SDS011;10614;53.198;6.570;2023-05-07T06:04:37;18.58;;;11.00;;
20908;SDS011;10614;53.198;6.570;2023-05-07T06:06:39;20.35;;;11.65;;
20908;SDS011;10614;53.198;6.570;2023-05-07T06:08:41;18.20;;;11.27;;
20908;SDS011;10614;53.198;6.570;2023-05-07T06:10:43;17.38;;;11.02;;
20908;SDS011;10614;53.198;6.570;2023-05-07T06:12:45;17.02;;;10.75;;
20908;SDS011;10614;53.198;6.570;2023-05-07T06:14:47;19.25;;;10.90;;
20908;SDS011;10614;53.198;6.570;2023-05-07T06:16:51;19.48;;;10.98;;
20908;SDS011;10614;53.198;6.570;2023-05-07T06:18:53;16.83;;;10.43;;
20908;SDS011;10614;53.198;6.570;2023-05-07T06:20:54;16.88;;;10.52;;
20908;SDS011;10614;53.198;6.570;2023-05-07T06:22:56;20.63;;;12.65;;
20908;SDS011;10614;53.198;6.570;2023-05-07T06:24:58;17.52;;;10.70;;
20908;SDS011;10614;53.198;6.570;2023-05-07T06:26:59;15.43;;;9.77;;
20908;SDS011;10614;53.198;6.570;2023-05-07T06:29:01;17.65;;;10.82;;
20908;SDS011;10614;53.198;6.570;2023-05-07T06:31:13;17.35;;;10.52;;
20908;SDS011;10614;53.198;6.570;2023-05-07T06:33:17;17.50;;;10.98;;
20908;SDS011;10614;53.198;6.570;2023-05-07T06:35:19;20.27;;;11.82;;
20908;SDS011;10614;53.198;6.570;2023-05-07T06:37:21;20.20;;;11.95;;
20908;SDS011;10614;53.198;6.570;2023-05-07T06:39:23;17.75;;;11.13;;
20908;SDS011;10614;53.198;6.570;2023-05-07T06:41:25;19.63;;;11.30;;
20908;SDS011;10614;53.198;6.570;2023-05-07T06:43:27;19.40;;;11.82;;
20908;SDS011;10614;53.198;6.570;2023-05-07T06:45:28;21.30;;;11.98;;
20908;SDS011;10614;53.198;6.570;2023-05-07T06:47:30;23.65;;;13.10;;
20908;SDS011;10614;53.198;6.570;2023-05-07T06:49:33;19.73;;;11.20;;
20908;SDS011;10614;53.198;6.570;2023-05-07T06:51:35;20.02;;;11.02;;
20908;SDS011;10614;53.198;6.570;2023-05-07T06:53:37;17.38;;;10.98;;
20908;SDS011;10614;53.198;6.570;2023-05-07T06:55:39;18.27;;;11.43;;
20908;SDS011;10614;53.198;6.570;2023-05-07T06:57:41;18.33;;;11.32;;
20908;SDS011;10614;53.198;6.570;2023-05-07T06:59:43;23.77;;;14.48;;
20908;SDS011;10614;53.198;6.570;2023-05-07T07:01:45;19.83;;;12.52;;
20908;SDS011;10614;53.198;6.570;2023-05-07T07:03:46;23.65;;;13.55;;
20908;SDS011;10614;53.198;6.570;2023-05-07T07:05:52;19.23;;;12.27;;
20908;SDS011;10614;53.198;6.570;2023-05-07T07:07:54;19.52;;;12.02;;
20908;SDS011;10614;53.198;6.570;2023-05-07T07:09:55;21.48;;;11.98;;
20908;SDS011;10614;53.198;6.570;2023-05-07T07:11:57;20.95;;;11.93;;
20908;SDS011;10614;53.198;6.570;2023-05-07T07:13:59;22.17;;;13.93;;
20908;SDS011;10614;53.198;6.570;2023-05-07T07:16:01;19.17;;;11.30;;
20908;SDS011;10614;53.198;6.570;2023-05-07T07:18:04;18.45;;;10.70;;
20908;SDS011;10614;53.198;6.570;2023-05-07T07:20:06;18.52;;;10.38;;
20908;SDS011;10614;53.198;6.570;2023-05-07T07:22:10;17.38;;;11.02;;
20908;SDS011;10614;53.198;6.570;2023-05-07T07:24:12;16.02;;;10.40;;
20908;SDS011;10614;53.198;6.570;2023-05-07T07:26:19;17.27;;;10.60;;
20908;SDS011;10614;53.198;6.570;2023-05-07T07:28:20;18.33;;;10.73;;
20908;SDS011;10614;53.198;6.570;2023-05-07T07:30:23;19.35;;;10.60;;
20908;SDS011;10614;53.198;6.570;2023-05-07T07:32:25;19.08;;;11.25;;
20908;SDS011;10614;53.198;6.570;2023-05-07T07:34:26;17.10;;;9.85;;
20908;SDS011;10614;53.198;6.570;2023-05-07T07:36:28;16.33;;;9.65;;
20908;SDS011;10614;53.198;6.570;2023-05-07T07:38:35;18.42;;;10.77;;
20908;SDS011;10614;53.198;6.570;2023-05-07T07:40:37;15.75;;;9.77;;
20908;SDS011;10614;53.198;6.570;2023-05-07T07:42:38;17.10;;;10.23;;
20908;SDS011;10614;53.198;6.570;2023-05-07T07:44:40;21.88;;;12.80;;
20908;SDS011;10614;53.198;6.570;2023-05-07T07:46:42;20.02;;;11.55;;
20908;SDS011;10614;53.198;6.570;2023-05-07T07:48:43;24.23;;;13.38;;
20908;SDS011;10614;53.198;6.570;2023-05-07T07:50:48;18.90;;;11.32;;
20908;SDS011;10614;53.198;6.570;2023-05-07T07:52:50;20.90;;;11.48;;
20908;SDS011;10614;53.198;6.570;2023-05-07T07:54:53;20.75;;;11.77;;
20908;SDS011;10614;53.198;6.570;2023-05-07T07:56:55;19.85;;;12.48;;
20908;SDS011;10614;53.198;6.570;2023-05-07T07:58:57;26.77;;;14.82;;
20908;SDS011;10614;53.198;6.570;2023-05-07T08:00:58;24.00;;;14.32;;
20908;SDS011;10614;53.198;6.570;2023-05-07T08:03:00;22.77;;;12.95;;
20908;SDS011;10614;53.198;6.570;2023-05-07T08:05:03;19.23;;;11.95;;
20908;SDS011;10614;53.198;6.570;2023-05-07T08:07:05;19.33;;;11.40;;
20908;SDS011;10614;53.198;6.570;2023-05-07T08:09:07;21.67;;;12.13;;
20908;SDS011;10614;53.198;6.570;2023-05-07T08:11:10;19.88;;;11.32;;
20908;SDS011;10614;53.198;6.570;2023-05-07T08:13:12;17.30;;;11.35;;
20908;SDS011;10614;53.198;6.570;2023-05-07T08:15:14;19.15;;;11.55;;
20908;SDS011;10614;53.198;6.570;2023-05-07T08:17:17;22.70;;;11.73;;
20908;SDS011;10614;53.198;6.570;2023-05-07T08:19:19;18.55;;;12.07;;
20908;SDS011;10614;53.198;6.570;2023-05-07T08:21:21;20.42;;;12.40;;
20908;SDS011;10614;53.198;6.570;2023-05-07T08:23:23;18.48;;;11.75;;
20908;SDS011;10614;53.198;6.570;2023-05-07T08:25:25;20.80;;;11.55;;
20908;SDS011;10614;53.198;6.570;2023-05-07T08:27:30;20.38;;;11.88;;
20908;SDS011;10614;53.198;6.570;2023-05-07T08:31:33;20.65;;;10.70;;
20908;SDS011;10614;53.198;6.570;2023-05-07T08:35:40;20.15;;;11.73;;
20908;SDS011;10614;53.198;6.570;2023-05-07T08:37:42;21.70;;;12.88;;
20908;SDS011;10614;53.198;6.570;2023-05-07T08:39:44;19.48;;;11.60;;
20908;SDS011;10614;53.198;6.570;2023-05-07T08:41:46;22.10;;;12.40;;
20908;SDS011;10614;53.198;6.570;2023-05-07T08:43:53;22.02;;;12.90;;
20908;SDS011;10614;53.198;6.570;2023-05-07T08:46:00;20.98;;;12.95;;
20908;SDS011;10614;53.198;6.570;2023-05-07T08:48:08;23.73;;;13.52;;
20908;SDS011;10614;53.198;6.570;2023-05-07T08:50:13;22.27;;;13.95;;
20908;SDS011;10614;53.198;6.570;2023-05-07T08:52:15;19.45;;;11.90;;
20908;SDS011;10614;53.198;6.570;2023-05-07T08:54:20;22.15;;;13.27;;
20908;SDS011;10614;53.198;6.570;2023-05-07T08:56:22;20.38;;;11.68;;
20908;SDS011;10614;53.198;6.570;2023-05-07T08:58:25;30.40;;;14.00;;
20908;SDS011;10614;53.198;6.570;2023-05-07T09:00:28;20.52;;;12.70;;
20908;SDS011;10614;53.198;6.570;2023-05-07T09:02:30;19.35;;;11.80;;
20908;SDS011;10614;53.198;6.570;2023-05-07T09:04:32;20.20;;;12.18;;
20908;SDS011;10614;53.198;6.570;2023-05-07T09:06:34;20.20;;;11.75;;
20908;SDS011;10614;53.198;6.570;2023-05-07T09:08:38;20.90;;;11.80;;
20908;SDS011;10614;53.198;6.570;2023-05-07T09:10:40;19.35;;;11.63;;
20908;SDS011;10614;53.198;6.570;2023-05-07T09:12:42;20.48;;;11.63;;
20908;SDS011;10614;53.198;6.570;2023-05-07T09:14:44;21.20;;;12.30;;
20908;SDS011;10614;53.198;6.570;2023-05-07T09:16:48;20.17;;;12.40;;
20908;SDS011;10614;53.198;6.570;2023-05-07T09:18:50;21.20;;;12.20;;
20908;SDS011;10614;53.198;6.570;2023-05-07T09:20:53;18.48;;;11.52;;
20908;SDS011;10614;53.198;6.570;2023-05-07T09:22:56;20.17;;;12.18;;
20908;SDS011;10614;53.198;6.570;2023-05-07T09:24:58;19.40;;;11.50;;
20908;SDS011;10614;53.198;6.570;2023-05-07T09:27:00;19.13;;;11.40;;
20908;SDS011;10614;53.198;6.570;2023-05-07T09:29:02;16.52;;;10.90;;
20908;SDS011;10614;53.198;6.570;2023-05-07T09:31:04;19.23;;;11.82;;
20908;SDS011;10614;53.198;6.570;2023-05-07T09:33:07;19.48;;;11.77;;
20908;SDS011;10614;53.198;6.570;2023-05-07T09:35:14;20.55;;;11.90;;
20908;SDS011;10614;53.198;6.570;2023-05-07T09:37:17;17.25;;;10.77;;
20908;SDS011;10614;53.198;6.570;2023-05-07T09:39:19;17.75;;;10.60;;
20908;SDS011;10614;53.198;6.570;2023-05-07T09:41:21;19.55;;;12.60;;
20908;SDS011;10614;53.198;6.570;2023-05-07T09:43:22;26.10;;;14.13;;
20908;SDS011;10614;53.198;6.570;2023-05-07T09:45:25;20.77;;;11.98;;
20908;SDS011;10614;53.198;6.570;2023-05-07T09:47:32;22.67;;;12.98;;
20908;SDS011;10614;53.198;6.570;2023-05-07T09:49:39;22.83;;;13.70;;
20908;SDS011;10614;53.198;6.570;2023-05-07T09:51:45;21.02;;;12.70;;
20908;SDS011;10614;53.198;6.570;2023-05-07T09:53:50;19.05;;;10.95;;
20908;SDS011;10614;53.198;6.570;2023-05-07T09:55:54;18.05;;;10.93;;
20908;SDS011;10614;53.198;6.570;2023-05-07T09:57:57;20.35;;;11.68;;
20908;SDS011;10614;53.198;6.570;2023-05-07T10:00:02;20.63;;;12.50;;
20908;SDS011;10614;53.198;6.570;2023-05-07T10:02:05;20.50;;;11.38;;
20908;SDS011;10614;53.198;6.570;2023-05-07T10:04:10;18.23;;;11.40;;
20908;SDS011;10614;53.198;6.570;2023-05-07T10:06:14;19.30;;;10.98;;
20908;SDS011;10614;53.198;6.570;2023-05-07T10:08:17;21.05;;;12.10;;
20908;SDS011;10614;53.198;6.570;2023-05-07T10:10:20;18.55;;;11.15;;
20908;SDS011;10614;53.198;6.570;2023-05-07T10:12:23;17.85;;;10.80;;
20908;SDS011;10614;53.198;6.570;2023-05-07T10:14:25;19.00;;;10.38;;
20908;SDS011;10614;53.198;6.570;2023-05-07T10:16:29;22.42;;;12.18;;
20908;SDS011;10614;53.198;6.570;2023-05-07T10:18:36;19.63;;;11.55;;
20908;SDS011;10614;53.198;6.570;2023-05-07T10:20:39;20.50;;;11.65;;
20908;SDS011;10614;53.198;6.570;2023-05-07T10:22:46;17.73;;;10.45;;
20908;SDS011;10614;53.198;6.570;2023-05-07T10:24:50;18.90;;;11.65;;
20908;SDS011;10614;53.198;6.570;2023-05-07T10:26:55;18.08;;;10.07;;
20908;SDS011;10614;53.198;6.570;2023-05-07T10:29:02;15.65;;;10.07;;
20908;SDS011;10614;53.198;6.570;2023-05-07T10:31:15;16.30;;;10.23;;
20908;SDS011;10614;53.198;6.570;2023-05-07T10:33:33;25.23;;;14.68;;
20908;SDS011;10614;53.198;6.570;2023-05-07T10:35:40;18.23;;;10.18;;
20908;SDS011;10614;53.198;6.570;2023-05-07T10:37:45;18.45;;;12.02;;
20908;SDS011;10614;53.198;6.570;2023-05-07T10:39:49;17.65;;;11.10;;
20908;SDS011;10614;53.198;6.570;2023-05-07T10:41:51;19.20;;;11.40;;
20908;SDS011;10614;53.198;6.570;2023-05-07T10:43:53;17.40;;;10.57;;
20908;SDS011;10614;53.198;6.570;2023-05-07T10:48:12;16.65;;;11.15;;
20908;SDS011;10614;53.198;6.570;2023-05-07T10:50:21;20.90;;;12.07;;
20908;SDS011;10614;53.198;6.570;2023-05-07T10:52:24;16.38;;;9.77;;
20908;SDS011;10614;53.198;6.570;2023-05-07T10:54:28;19.65;;;11.10;;
20908;SDS011;10614;53.198;6.570;2023-05-07T10:56:29;18.13;;;9.95;;
20908;SDS011;10614;53.198;6.570;2023-05-07T10:58:31;18.67;;;11.23;;
20908;SDS011;10614;53.198;6.570;2023-05-07T11:00:41;19.15;;;10.63;;
20908;SDS011;10614;53.198;6.570;2023-05-07T11:07:25;17.65;;;10.38;;
20908;SDS011;10614;53.198;6.570;2023-05-07T11:12:13;17.70;;;10.18;;
20908;SDS011;10614;53.198;6.570;2023-05-07T11:14:14;17.15;;;9.68;;
20908;SDS011;10614;53.198;6.570;2023-05-07T11:16:59;16.88;;;9.93;;
20908;SDS011;10614;53.198;6.570;2023-05-07T11:19:03;13.98;;;8.95;;
20908;SDS011;10614;53.198;6.570;2023-05-07T11:21:05;16.80;;;10.38;;
20908;SDS011;10614;53.198;6.570;2023-05-07T11:23:07;18.10;;;10.52;;
20908;SDS011;10614;53.198;6.570;2023-05-07T11:25:09;15.43;;;10.23;;
20908;SDS011;10614;53.198;6.570;2023-05-07T11:27:13;15.13;;;9.80;;
20908;SDS011;10614;53.198;6.570;2023-05-07T11:29:15;16.13;;;9.90;;
20908;SDS011;10614;53.198;6.570;2023-05-07T11:31:20;16.60;;;10.40;;
20908;SDS011;10614;53.198;6.570;2023-05-07T11:35:31;18.10;;;11.45;;
20908;SDS011;10614;53.198;6.570;2023-05-07T11:37:34;15.98;;;9.77;;
20908;SDS011;10614;53.198;6.570;2023-05-07T11:39:36;16.65;;;10.38;;
20908;SDS011;10614;53.198;6.570;2023-05-07T11:41:39;16.65;;;11.15;;
20908;SDS011;10614;53.198;6.570;2023-05-07T11:43:59;18.27;;;12.65;;
20908;SDS011;10614;53.198;6.570;2023-05-07T11:46:05;16.50;;;10.40;;
20908;SDS011;10614;53.198;6.570;2023-05-07T11:48:09;13.88;;;9.27;;
20908;SDS011;10614;53.198;6.570;2023-05-07T11:50:11;16.08;;;9.07;;
20908;SDS011;10614;53.198;6.570;2023-05-07T11:52:13;15.77;;;9.82;;
20908;SDS011;10614;53.198;6.570;2023-05-07T11:54:15;14.75;;;10.27;;
20908;SDS011;10614;53.198;6.570;2023-05-07T11:56:18;13.30;;;9.02;;
20908;SDS011;10614;53.198;6.570;2023-05-07T11:58:21;13.98;;;9.73;;
20908;SDS011;10614;53.198;6.570;2023-05-07T12:00:25;14.48;;;9.98;;
20908;SDS011;10614;53.198;6.570;2023-05-07T12:02:27;18.38;;;11.13;;
20908;SDS011;10614;53.198;6.570;2023-05-07T12:04:29;13.90;;;9.20;;
20908;SDS011;10614;53.198;6.570;2023-05-07T12:06:31;13.45;;;8.55;;
20908;SDS011;10614;53.198;6.570;2023-05-07T12:08:40;14.20;;;8.68;;
20908;SDS011;10614;53.198;6.570;2023-05-07T12:10:42;13.00;;;7.38;;
20908;SDS011;10614;53.198;6.570;2023-05-07T12:12:45;12.88;;;8.60;;
20908;SDS011;10614;53.198;6.570;2023-05-07T12:14:47;15.77;;;10.35;;
20908;SDS011;10614;53.198;6.570;2023-05-07T12:16:50;13.88;;;9.23;;
20908;SDS011;10614;53.198;6.570;2023-05-07T12:18:53;12.60;;;8.43;;